Tilden, TX (78072)

1:49 PM CDT on August 30, 2015 (GMT -0500)
Huajuco Road | | Change Station
CLOSE
Current Station
Personal Weather Station
Location: Cotulla, TX
Elevation: 394 ft
Nearby Weather Stations

Elev 394 ft 28.19 °N, 99.01 °W | Updated 1 second ago

Partly Cloudy
Partly Cloudy
93.2 °F
Feels Like 94 °F
N
2.6
Wind Variable Wind from South
Gusts 11.0 mph

Today
High -- | Low -- °F
--% Chance of Precip.
Yesterday
High -- | Low -- °F
Precip. -- in
7:11 AM 7:58 PM
Full, 98% visible
Pressure 30.00 in
Visibility 10.0 miles
Clouds Few 4300 ft
Heat Index 94 °F
Dew Point 62 °F
Humidity 36%
Rainfall 0.00 in
Snow Depth Not available.
UV 10 out of 12
Pollen 8.10 out of 12
Air Quality Not available.
Flu Activity Not available.
METAR KCOT 301753Z AUTO VRB06KT 10SM FEW043 33/18 A3002 RMK AO2 SLP157 T03280183 10328 20228 58002 $
Pressure 30.00 in
Visibility 10.0 miles
Clouds Few 4300 ft
Heat Index 94 °F
Dew Point 62 °F
Humidity 36%
Rainfall 0.00 in
Snow Depth Not available.
UV 10 out of 12
Pollen 8.10 out of 12
Air Quality Not available.
Flu Activity Not available.
METAR KCOT 301753Z AUTO VRB06KT 10SM FEW043 33/18 A3002 RMK AO2 SLP157 T03280183 10328 20228 58002 $
Nowcast | as of 12:02 PM CDT on August 30, 2015

Through 2 PM...isolated showers may occur across south Texas and the middle Texas coastal waters. Residents and mariners can expect brief moderate rainfall with little other impacts from these showers. Rainfall amounts should generally be less than a few hundredths of an inch.

×

10-Day Weather Forecast

×

Almanac

Astronomy

Aug. 30, 2015 Rise Set
Actual Time
Civil Twilight
Nautical Twilight
Astronomical Twilight
Moon
Length of Visible Light
Length of Day
Tomorrow will be .
, % of the Moon is Illuminated

Today's Extremes

State Highs State Lows

Community

WunderPhotos

Upload Photos

1,851,031 photos uploaded!

WunderBlogs® & News

Nearby

Air Quality

  Air Quality AQ Index Pollutant
Not available.

Snow Depth

Station Depth Elevation

Earthquake Activity

City Distance Mag. Time & Date
Minimum magnitude displayed is 2.5.

Coastal Water Temperatures

Place Temperature

Stations

Nearby Weather Stations

Station Location Temp. Windchill Dew Point Humidity Wind Precip. Elev Updated Type